sensor_id;sensor_type;location;lat;lon;timestamp;P1;durP1;ratioP1;P2;durP2;ratioP2
17261;SDS011;9873;52.236;21.002;2023-04-06T00:03:34;7.90;;;3.07;;
17261;SDS011;9873;52.236;21.002;2023-04-06T00:13:37;4.30;;;3.20;;
17261;SDS011;9873;52.236;21.002;2023-04-06T00:23:39;7.87;;;3.37;;
17261;SDS011;9873;52.236;21.002;2023-04-06T00:33:41;6.47;;;3.33;;
17261;SDS011;9873;52.236;21.002;2023-04-06T00:43:46;5.87;;;3.70;;
17261;SDS011;9873;52.236;21.002;2023-04-06T00:53:48;5.67;;;3.27;;
17261;SDS011;9873;52.236;21.002;2023-04-06T01:03:51;6.93;;;3.23;;
17261;SDS011;9873;52.236;21.002;2023-04-06T01:13:57;5.30;;;3.00;;
17261;SDS011;9873;52.236;21.002;2023-04-06T01:24:12;6.40;;;3.47;;
17261;SDS011;9873;52.236;21.002;2023-04-06T01:34:38;6.13;;;3.40;;
17261;SDS011;9873;52.236;21.002;2023-04-06T01:44:43;7.40;;;2.97;;
17261;SDS011;9873;52.236;21.002;2023-04-06T01:54:50;3.97;;;2.93;;
17261;SDS011;9873;52.236;21.002;2023-04-06T02:05:15;5.93;;;3.43;;
17261;SDS011;9873;52.236;21.002;2023-04-06T02:15:24;6.33;;;4.27;;
17261;SDS011;9873;52.236;21.002;2023-04-06T02:25:27;7.00;;;4.63;;
17261;SDS011;9873;52.236;21.002;2023-04-06T02:35:31;9.47;;;4.70;;
17261;SDS011;9873;52.236;21.002;2023-04-06T02:45:34;6.93;;;4.20;;
17261;SDS011;9873;52.236;21.002;2023-04-06T02:55:41;10.80;;;4.20;;
17261;SDS011;9873;52.236;21.002;2023-04-06T03:05:48;9.23;;;4.10;;
17261;SDS011;9873;52.236;21.002;2023-04-06T03:15:57;12.83;;;5.10;;
17261;SDS011;9873;52.236;21.002;2023-04-06T03:26:02;7.80;;;4.27;;
17261;SDS011;9873;52.236;21.002;2023-04-06T03:36:04;15.40;;;6.10;;
17261;SDS011;9873;52.236;21.002;2023-04-06T03:46:16;11.63;;;5.20;;
17261;SDS011;9873;52.236;21.002;2023-04-06T03:56:19;10.93;;;5.20;;
17261;SDS011;9873;52.236;21.002;2023-04-06T04:06:22;9.87;;;5.37;;
17261;SDS011;9873;52.236;21.002;2023-04-06T04:16:27;13.23;;;5.70;;
17261;SDS011;9873;52.236;21.002;2023-04-06T04:26:30;11.30;;;6.10;;
17261;SDS011;9873;52.236;21.002;2023-04-06T04:36:33;12.33;;;5.57;;
17261;SDS011;9873;52.236;21.002;2023-04-06T04:46:42;12.33;;;5.13;;
17261;SDS011;9873;52.236;21.002;2023-04-06T04:56:51;10.87;;;5.63;;
17261;SDS011;9873;52.236;21.002;2023-04-06T05:07:16;11.53;;;4.73;;
17261;SDS011;9873;52.236;21.002;2023-04-06T05:17:21;12.93;;;4.90;;
17261;SDS011;9873;52.236;21.002;2023-04-06T05:27:24;7.73;;;3.90;;
17261;SDS011;9873;52.236;21.002;2023-04-06T05:37:28;6.97;;;3.93;;
17261;SDS011;9873;52.236;21.002;2023-04-06T05:47:32;8.13;;;4.17;;
17261;SDS011;9873;52.236;21.002;2023-04-06T05:57:43;7.47;;;4.43;;
17261;SDS011;9873;52.236;21.002;2023-04-06T06:07:54;7.37;;;4.57;;
17261;SDS011;9873;52.236;21.002;2023-04-06T06:18:00;7.33;;;4.67;;
17261;SDS011;9873;52.236;21.002;2023-04-06T06:28:07;4.33;;;2.60;;
17261;SDS011;9873;52.236;21.002;2023-04-06T06:38:11;5.40;;;2.70;;
17261;SDS011;9873;52.236;21.002;2023-04-06T06:48:14;8.30;;;3.27;;
17261;SDS011;9873;52.236;21.002;2023-04-06T06:58:20;4.50;;;2.23;;
17261;SDS011;9873;52.236;21.002;2023-04-06T07:08:25;4.07;;;2.17;;
17261;SDS011;9873;52.236;21.002;2023-04-06T07:18:30;4.10;;;2.90;;
17261;SDS011;9873;52.236;21.002;2023-04-06T07:28:36;4.30;;;2.67;;
17261;SDS011;9873;52.236;21.002;2023-04-06T07:38:41;4.23;;;2.67;;
17261;SDS011;9873;52.236;21.002;2023-04-06T07:48:48;4.67;;;2.10;;
17261;SDS011;9873;52.236;21.002;2023-04-06T07:58:51;5.50;;;2.60;;
17261;SDS011;9873;52.236;21.002;2023-04-06T08:08:59;4.77;;;2.50;;
17261;SDS011;9873;52.236;21.002;2023-04-06T08:19:06;4.60;;;2.10;;
17261;SDS011;9873;52.236;21.002;2023-04-06T08:29:11;2.93;;;1.80;;
17261;SDS011;9873;52.236;21.002;2023-04-06T08:39:16;4.17;;;3.10;;
17261;SDS011;9873;52.236;21.002;2023-04-06T08:49:20;3.93;;;2.23;;
17261;SDS011;9873;52.236;21.002;2023-04-06T08:59:24;6.60;;;2.90;;
17261;SDS011;9873;52.236;21.002;2023-04-06T09:09:29;4.97;;;2.57;;
17261;SDS011;9873;52.236;21.002;2023-04-06T09:19:45;6.07;;;4.07;;
17261;SDS011;9873;52.236;21.002;2023-04-06T09:29:50;3.60;;;2.60;;
17261;SDS011;9873;52.236;21.002;2023-04-06T09:40:05;6.37;;;3.67;;
17261;SDS011;9873;52.236;21.002;2023-04-06T09:50:12;6.77;;;5.07;;
17261;SDS011;9873;52.236;21.002;2023-04-06T10:00:17;7.90;;;5.50;;
17261;SDS011;9873;52.236;21.002;2023-04-06T10:10:28;8.77;;;4.27;;
17261;SDS011;9873;52.236;21.002;2023-04-06T10:30:58;6.47;;;3.63;;
17261;SDS011;9873;52.236;21.002;2023-04-06T10:41:05;6.27;;;4.13;;
17261;SDS011;9873;52.236;21.002;2023-04-06T10:51:15;4.40;;;2.97;;
17261;SDS011;9873;52.236;21.002;2023-04-06T11:01:21;4.90;;;3.37;;
17261;SDS011;9873;52.236;21.002;2023-04-06T11:11:28;3.87;;;2.83;;
17261;SDS011;9873;52.236;21.002;2023-04-06T11:21:37;4.57;;;3.50;;
17261;SDS011;9873;52.236;21.002;2023-04-06T11:31:48;7.17;;;4.20;;
17261;SDS011;9873;52.236;21.002;2023-04-06T11:41:55;7.30;;;5.03;;
17261;SDS011;9873;52.236;21.002;2023-04-06T11:52:00;8.77;;;3.90;;
17261;SDS011;9873;52.236;21.002;2023-04-06T12:02:19;8.43;;;5.20;;
17261;SDS011;9873;52.236;21.002;2023-04-06T12:12:22;6.33;;;4.40;;
17261;SDS011;9873;52.236;21.002;2023-04-06T12:22:25;8.97;;;5.00;;
17261;SDS011;9873;52.236;21.002;2023-04-06T12:32:35;8.20;;;4.63;;
17261;SDS011;9873;52.236;21.002;2023-04-06T12:42:40;4.93;;;4.27;;
17261;SDS011;9873;52.236;21.002;2023-04-06T12:52:48;9.40;;;5.10;;
17261;SDS011;9873;52.236;21.002;2023-04-06T13:02:50;5.17;;;3.37;;
17261;SDS011;9873;52.236;21.002;2023-04-06T13:12:55;9.00;;;3.77;;
17261;SDS011;9873;52.236;21.002;2023-04-06T13:22:58;8.57;;;6.10;;
17261;SDS011;9873;52.236;21.002;2023-04-06T13:33:06;7.83;;;3.57;;
17261;SDS011;9873;52.236;21.002;2023-04-06T13:43:11;6.83;;;4.80;;
17261;SDS011;9873;52.236;21.002;2023-04-06T13:53:18;4.50;;;3.63;;
17261;SDS011;9873;52.236;21.002;2023-04-06T14:03:20;7.73;;;5.40;;
17261;SDS011;9873;52.236;21.002;2023-04-06T14:13:27;8.00;;;5.50;;
17261;SDS011;9873;52.236;21.002;2023-04-06T14:23:33;11.03;;;5.33;;
17261;SDS011;9873;52.236;21.002;2023-04-06T14:33:41;10.17;;;6.23;;
17261;SDS011;9873;52.236;21.002;2023-04-06T14:43:46;9.13;;;5.23;;
17261;SDS011;9873;52.236;21.002;2023-04-06T14:53:49;9.43;;;5.33;;
17261;SDS011;9873;52.236;21.002;2023-04-06T15:03:51;7.30;;;5.50;;
17261;SDS011;9873;52.236;21.002;2023-04-06T15:13:54;8.50;;;5.17;;
17261;SDS011;9873;52.236;21.002;2023-04-06T15:23:58;9.20;;;5.57;;
17261;SDS011;9873;52.236;21.002;2023-04-06T15:34:03;7.50;;;4.97;;
17261;SDS011;9873;52.236;21.002;2023-04-06T15:44:12;6.93;;;4.97;;
17261;SDS011;9873;52.236;21.002;2023-04-06T15:54:21;16.63;;;5.97;;
17261;SDS011;9873;52.236;21.002;2023-04-06T16:04:26;8.53;;;5.90;;
17261;SDS011;9873;52.236;21.002;2023-04-06T16:14:31;6.77;;;4.60;;
17261;SDS011;9873;52.236;21.002;2023-04-06T16:24:33;8.97;;;5.23;;
17261;SDS011;9873;52.236;21.002;2023-04-06T16:34:38;9.40;;;6.07;;
17261;SDS011;9873;52.236;21.002;2023-04-06T16:44:42;8.80;;;5.07;;
17261;SDS011;9873;52.236;21.002;2023-04-06T16:54:45;15.80;;;6.00;;
17261;SDS011;9873;52.236;21.002;2023-04-06T17:04:48;11.20;;;6.07;;
17261;SDS011;9873;52.236;21.002;2023-04-06T17:14:51;12.27;;;6.10;;
17261;SDS011;9873;52.236;21.002;2023-04-06T17:24:54;13.67;;;5.53;;
17261;SDS011;9873;52.236;21.002;2023-04-06T17:34:59;11.33;;;6.27;;
17261;SDS011;9873;52.236;21.002;2023-04-06T17:45:06;11.93;;;5.73;;
17261;SDS011;9873;52.236;21.002;2023-04-06T17:55:09;10.07;;;6.30;;
17261;SDS011;9873;52.236;21.002;2023-04-06T18:05:13;12.70;;;7.80;;
17261;SDS011;9873;52.236;21.002;2023-04-06T18:15:17;11.27;;;7.77;;
17261;SDS011;9873;52.236;21.002;2023-04-06T18:25:22;10.00;;;4.80;;
17261;SDS011;9873;52.236;21.002;2023-04-06T18:35:26;12.00;;;7.57;;
17261;SDS011;9873;52.236;21.002;2023-04-06T18:45:30;12.60;;;8.27;;
17261;SDS011;9873;52.236;21.002;2023-04-06T18:55:38;10.97;;;6.47;;
17261;SDS011;9873;52.236;21.002;2023-04-06T19:05:43;12.47;;;7.77;;
17261;SDS011;9873;52.236;21.002;2023-04-06T19:15:50;12.03;;;7.67;;
17261;SDS011;9873;52.236;21.002;2023-04-06T19:25:59;9.60;;;5.10;;
17261;SDS011;9873;52.236;21.002;2023-04-06T19:36:04;9.67;;;7.00;;
17261;SDS011;9873;52.236;21.002;2023-04-06T19:46:10;11.43;;;7.63;;
17261;SDS011;9873;52.236;21.002;2023-04-06T19:56:12;13.50;;;8.20;;
17261;SDS011;9873;52.236;21.002;2023-04-06T20:06:25;9.73;;;6.13;;
17261;SDS011;9873;52.236;21.002;2023-04-06T20:16:27;13.07;;;7.20;;
17261;SDS011;9873;52.236;21.002;2023-04-06T20:26:29;13.40;;;7.50;;
17261;SDS011;9873;52.236;21.002;2023-04-06T20:36:32;13.90;;;8.57;;
17261;SDS011;9873;52.236;21.002;2023-04-06T20:46:40;16.47;;;9.37;;
17261;SDS011;9873;52.236;21.002;2023-04-06T20:56:54;15.27;;;9.67;;
17261;SDS011;9873;52.236;21.002;2023-04-06T21:07:04;17.57;;;10.43;;
17261;SDS011;9873;52.236;21.002;2023-04-06T21:17:09;20.33;;;10.53;;
17261;SDS011;9873;52.236;21.002;2023-04-06T21:27:15;24.83;;;12.30;;
17261;SDS011;9873;52.236;21.002;2023-04-06T21:37:22;26.00;;;14.03;;
17261;SDS011;9873;52.236;21.002;2023-04-06T21:47:30;29.23;;;12.33;;
17261;SDS011;9873;52.236;21.002;2023-04-06T21:57:38;27.03;;;13.63;;
17261;SDS011;9873;52.236;21.002;2023-04-06T22:07:40;28.63;;;13.93;;
17261;SDS011;9873;52.236;21.002;2023-04-06T22:17:45;23.77;;;12.47;;
17261;SDS011;9873;52.236;21.002;2023-04-06T22:27:52;25.57;;;14.47;;
17261;SDS011;9873;52.236;21.002;2023-04-06T22:38:01;32.23;;;15.63;;
17261;SDS011;9873;52.236;21.002;2023-04-06T22:48:06;29.17;;;14.23;;
17261;SDS011;9873;52.236;21.002;2023-04-06T22:58:08;28.23;;;14.40;;
17261;SDS011;9873;52.236;21.002;2023-04-06T23:08:14;22.17;;;13.10;;
17261;SDS011;9873;52.236;21.002;2023-04-06T23:18:17;23.37;;;11.33;;
17261;SDS011;9873;52.236;21.002;2023-04-06T23:28:22;29.97;;;14.33;;
17261;SDS011;9873;52.236;21.002;2023-04-06T23:38:24;32.57;;;15.60;;
17261;SDS011;9873;52.236;21.002;2023-04-06T23:48:32;33.03;;;16.73;;
17261;SDS011;9873;52.236;21.002;2023-04-06T23:58:39;37.97;;;17.57;;
